Airfield :
LOGIN :

Register | Disclaimer

   EN    FR    IT 

 










Legend :    VFR   Marginal VFR   IFR   Intensive IFR   Very Intensive IFR
Visi :
Ceiling :
>= 8 km
>= 3000ft
5 to 8 km
1000 to 3000 ft
1500m to 5 km
500 to 1000 ft
800 to 1500m
200 to 500 ft
< 800m
< 200 ft
Symbols :   Thunderstorms  Fog  Heavy snow  Heavy precipitations  Wind > 20 kt
SIGMETs :     Misc.  Thunderstorms  Icing  Turbulence  Mountain Waves  Volcanic Ashes






- Airport Elevation : 697 ft
- IATA code : PEG


LIRZ - San Edigio Perugia

CURRENT METAR :
  • 031120Z AUTO 22013KT 9999 SCT054/// 32/18 Q1006

EXPIRED METARs :
  • 031050Z AUTO 19007KT 160V230 9999 BKN048/// 31/19 Q1007
  • 031020Z AUTO 21011KT 180V240 9999 FEW047/// 32/19 Q1007
  • 030950Z AUTO 21013KT 9999 BKN045/// 31/19 Q1007
  • 030920Z AUTO 21011KT 9999 BKN044/// 30/19 Q1008
  • 030850Z AUTO 21011KT 9999 BKN043/// 29/18 Q1008

TAF TAF LIRZ
Valid from the 03 at 12:00 until the 04 at 12:00 UTC


031100Z 0312/0412 21012KT 9999 SCT045
TEMPO 0312/0318 4000 TSRA SCT030CB



MET'MAP, your aeronautical weather chart ! - Copyright ORBIFLY December 2007 - Disclaimer

ORBIFLY MET'MAP TEAM :

Programming & Development : Alexandra Zaïnal
Concept & original design : Baudouin d'Aumeries
Assistance for programming : Marc-Olivier Méhu
Technical & hardware support : Manuel Goepfert

Contact : metmap@orbifly.com




SOURCES & CREDITS :

   NOAA